createdAt,value
2023-03-15T00:02:14.993Z,100241.56
2023-03-15T00:05:00.295Z,100251.72
2023-03-15T00:07:45.201Z,100256.00
2023-03-15T00:10:30.144Z,100251.91
2023-03-15T00:13:17.081Z,100259.44
2023-03-15T00:16:03.890Z,100264.53
2023-03-15T00:18:48.741Z,100259.59
2023-03-15T00:21:34.234Z,100264.09
2023-03-15T00:24:19.519Z,100277.53
2023-03-15T00:27:05.892Z,100269.66
2023-03-15T00:29:50.861Z,100278.28
2023-03-15T00:32:35.740Z,100280.06
2023-03-15T00:35:22.215Z,100281.88
2023-03-15T00:38:07.808Z,100286.16
2023-03-15T00:40:53.013Z,100282.00
2023-03-15T00:43:38.233Z,100285.28
2023-03-15T00:46:24.240Z,100290.41
2023-03-15T00:49:09.321Z,100294.75
2023-03-15T00:51:57.215Z,100299.13
2023-03-15T00:54:43.850Z,100310.28
2023-03-15T00:57:29.362Z,100310.19
2023-03-15T01:00:20.049Z,100315.22
2023-03-15T01:03:05.093Z,100300.72
2023-03-15T01:05:50.341Z,100315.34
2023-03-15T01:08:35.469Z,100309.16
2023-03-15T01:11:24.608Z,100319.56
2023-03-15T01:14:09.924Z,100323.69
2023-03-15T01:16:55.420Z,100324.66
2023-03-15T01:19:40.406Z,100326.28
2023-03-15T01:22:26.812Z,100324.66
2023-03-15T01:25:11.985Z,100322.03
2023-03-15T01:27:56.983Z,100327.16
2023-03-15T01:30:49.917Z,100336.53
2023-03-15T01:33:35.058Z,100336.41
2023-03-15T01:36:20.314Z,100334.88
2023-03-15T01:39:05.170Z,100334.09
2023-03-15T01:41:50.613Z,100335.81
2023-03-15T01:44:57.091Z,100349.38
2023-03-15T01:47:42.792Z,100345.41
2023-03-15T01:50:27.802Z,100337.38
2023-03-15T01:53:12.753Z,100342.59
2023-03-15T01:55:59.208Z,100346.94
2023-03-15T01:58:46.813Z,100348.72
2023-03-15T02:01:34.327Z,100351.31
2023-03-15T02:04:25.887Z,100351.41
2023-03-15T02:07:11.205Z,100352.16
2023-03-15T02:10:04.402Z,100353.06
2023-03-15T02:12:53.410Z,100354.91
2023-03-15T02:15:38.350Z,100358.31
2023-03-15T02:18:23.961Z,100363.53
2023-03-15T02:21:49.864Z,100352.16
2023-03-15T02:25:09.162Z,100350.53
2023-03-15T02:27:54.296Z,100359.09
2023-03-15T02:30:39.784Z,100358.22
2023-03-15T02:33:42.463Z,100371.09
2023-03-15T02:36:29.335Z,100368.56
2023-03-15T02:39:17.718Z,100377.03
2023-03-15T02:42:02.935Z,100363.25
2023-03-15T02:44:51.542Z,100366.66
2023-03-15T02:47:36.476Z,100363.44
2023-03-15T02:50:21.863Z,100354.78
2023-03-15T02:53:06.896Z,100365.19
2023-03-15T02:55:52.005Z,100363.50
2023-03-15T02:58:36.936Z,100365.13
2023-03-15T03:01:21.892Z,100369.50
2023-03-15T03:04:06.829Z,100377.06
2023-03-15T03:06:51.713Z,100373.41
2023-03-15T03:09:36.537Z,100384.72
2023-03-15T03:12:21.450Z,100390.94
2023-03-15T03:15:07.212Z,100391.09
2023-03-15T03:17:52.005Z,100398.66
2023-03-15T03:20:37.238Z,100402.88
2023-03-15T03:23:25.605Z,100398.66
2023-03-15T03:26:18.718Z,100415.00
2023-03-15T03:29:07.640Z,100420.03
2023-03-15T03:31:53.370Z,100426.06
2023-03-15T03:34:38.188Z,100425.25
2023-03-15T03:37:23.285Z,100433.75
2023-03-15T03:40:09.227Z,100432.25
2023-03-15T03:42:54.704Z,100439.84
2023-03-15T03:45:39.528Z,100447.91
2023-03-15T03:48:24.406Z,100444.19
2023-03-15T03:51:10.078Z,100447.00
2023-03-15T03:53:55.340Z,100451.13
2023-03-15T03:56:41.017Z,100449.16
2023-03-15T03:59:26.473Z,100455.91
2023-03-15T04:02:11.841Z,100456.00
2023-03-15T04:04:57.115Z,100463.91
2023-03-15T04:07:42.269Z,100466.50
2023-03-15T04:10:27.246Z,100475.09
2023-03-15T04:13:12.045Z,100480.88
2023-03-15T04:15:57.679Z,100484.38
2023-03-15T04:18:43.590Z,100485.38
2023-03-15T04:21:31.807Z,100493.84
2023-03-15T04:24:17.063Z,100505.97
2023-03-15T04:27:02.636Z,100503.28
2023-03-15T04:29:47.467Z,100510.53
2023-03-15T04:32:32.600Z,100512.31
2023-03-15T04:35:17.664Z,100515.63
2023-03-15T04:38:04.265Z,100524.13
2023-03-15T04:40:50.345Z,100524.06
2023-03-15T04:43:35.497Z,100521.34
2023-03-15T04:46:20.512Z,100519.47
2023-03-15T04:49:05.955Z,100527.94
2023-03-15T04:51:51.341Z,100531.38
2023-03-15T04:54:36.109Z,100530.06
2023-03-15T04:57:21.372Z,100530.78
2023-03-15T05:00:08.103Z,100535.94
2023-03-15T05:02:54.954Z,100552.06
2023-03-15T05:05:39.890Z,100549.41
2023-03-15T05:08:24.675Z,100552.84
2023-03-15T05:11:09.810Z,100551.81
2023-03-15T05:13:54.948Z,100564.19
2023-03-15T05:16:39.967Z,100573.34
2023-03-15T05:19:29.029Z,100570.94
2023-03-15T05:22:14.329Z,100585.41
2023-03-15T05:24:59.869Z,100588.66
2023-03-15T05:27:46.697Z,100600.75
2023-03-15T05:30:32.105Z,100610.84
2023-03-15T05:33:16.965Z,100604.94
2023-03-15T05:36:02.082Z,100616.25
2023-03-15T05:38:47.081Z,100617.81
2023-03-15T05:41:32.371Z,100613.63
2023-03-15T05:44:17.520Z,100629.13
2023-03-15T05:47:04.994Z,100636.78
2023-03-15T05:49:50.565Z,100636.88
2023-03-15T05:52:35.302Z,100649.63
2023-03-15T05:55:20.260Z,100658.34
2023-03-15T05:58:05.952Z,100660.88
2023-03-15T06:00:51.306Z,100666.91
2023-03-15T06:03:36.383Z,100670.44
2023-03-15T06:06:21.455Z,100675.72
2023-03-15T06:09:06.610Z,100685.28
2023-03-15T06:11:52.624Z,100686.19
2023-03-15T06:14:37.906Z,100692.16
2023-03-15T06:17:22.739Z,100699.72
2023-03-15T06:20:08.743Z,100708.38
2023-03-15T06:22:53.625Z,100708.31
2023-03-15T06:25:38.392Z,100713.47
2023-03-15T06:28:23.633Z,100720.41
2023-03-15T06:31:10.053Z,100719.56
2023-03-15T06:33:55.257Z,100717.72
2023-03-15T06:36:43.225Z,100723.06
2023-03-15T06:39:28.098Z,100728.91
2023-03-15T06:42:14.081Z,100724.66
2023-03-15T06:44:59.159Z,100718.59
2023-03-15T06:47:45.882Z,100726.50
2023-03-15T06:50:44.154Z,100728.97
2023-03-15T06:53:31.917Z,100730.00
2023-03-15T06:56:17.051Z,100725.63
2023-03-15T06:59:02.462Z,100736.25
2023-03-15T07:01:47.734Z,100749.13
2023-03-15T07:04:32.901Z,100756.94
2023-03-15T07:07:18.270Z,100748.25
2023-03-15T07:10:04.180Z,100759.50
2023-03-15T07:12:49.421Z,100760.31
2023-03-15T07:15:36.617Z,100770.59
2023-03-15T07:18:22.584Z,100779.25
2023-03-15T07:21:08.097Z,100777.59
2023-03-15T07:23:53.689Z,100781.84
2023-03-15T07:26:38.759Z,100782.97
2023-03-15T07:29:24.835Z,100794.94
2023-03-15T07:32:09.804Z,100794.81
2023-03-15T07:34:58.450Z,100799.09
2023-03-15T07:37:44.864Z,100804.53
2023-03-15T07:40:31.625Z,100823.66
2023-03-15T07:43:16.428Z,100811.41
2023-03-15T07:46:02.118Z,100817.38
2023-03-15T07:48:49.953Z,100824.34
2023-03-15T07:51:35.617Z,100818.50
2023-03-15T07:54:20.995Z,100823.00
2023-03-15T07:57:05.847Z,100819.66
2023-03-15T07:59:52.501Z,100822.25
2023-03-15T08:02:38.025Z,100833.19
2023-03-15T08:05:23.284Z,100828.00
2023-03-15T08:08:08.276Z,100841.78
2023-03-15T08:10:55.398Z,100840.91
2023-03-15T08:13:41.713Z,100846.94
2023-03-15T08:16:27.584Z,100847.72
2023-03-15T08:19:12.749Z,100853.72
2023-03-15T08:21:59.246Z,100861.63
2023-03-15T08:24:45.656Z,100861.13
2023-03-15T08:27:31.057Z,100870.63
2023-03-15T08:30:17.560Z,100876.63
2023-03-15T08:33:03.593Z,100873.97
2023-03-15T08:35:54.412Z,100886.78
2023-03-15T08:38:39.245Z,100899.69
2023-03-15T08:41:24.014Z,100901.75
2023-03-15T08:44:10.172Z,100909.84
2023-03-15T08:46:55.427Z,100907.25
2023-03-15T08:49:40.129Z,100908.19
2023-03-15T08:52:25.226Z,100907.19
2023-03-15T08:55:14.200Z,100913.00
2023-03-15T08:58:02.302Z,100920.06
2023-03-15T09:00:51.923Z,100921.03
2023-03-15T09:03:37.131Z,100925.28
2023-03-15T09:06:22.903Z,100930.59
2023-03-15T09:09:08.046Z,100931.41
2023-03-15T09:11:53.377Z,100928.06
2023-03-15T09:14:38.487Z,100936.63
2023-03-15T09:17:23.458Z,100944.44
2023-03-15T09:20:14.525Z,100933.34
2023-03-15T09:23:00.130Z,100949.53
2023-03-15T09:25:45.271Z,100955.69
2023-03-15T09:28:30.743Z,100956.59
2023-03-15T09:31:15.690Z,100955.00
2023-03-15T09:34:00.800Z,100952.50
2023-03-15T09:36:53.186Z,100949.91
2023-03-15T09:39:38.315Z,100961.91
2023-03-15T09:42:35.581Z,100968.03
2023-03-15T09:45:42.193Z,100961.13
2023-03-15T09:48:38.028Z,100964.66
2023-03-15T09:51:23.065Z,100965.50
2023-03-15T09:54:14.383Z,100975.03
2023-03-15T09:57:04.706Z,100965.53
2023-03-15T09:59:54.156Z,100967.22
2023-03-15T10:02:47.580Z,100973.28
2023-03-15T10:05:41.405Z,100969.63
2023-03-15T10:08:26.788Z,100970.53
2023-03-15T10:11:20.901Z,100971.53
2023-03-15T10:14:24.835Z,100964.66
2023-03-15T10:17:24.416Z,100971.50
2023-03-15T10:20:19.186Z,100968.06
2023-03-15T10:23:18.635Z,100963.69
2023-03-15T10:26:06.436Z,100967.13
2023-03-15T10:28:53.442Z,100971.47
2023-03-15T10:31:44.845Z,100965.47
2023-03-15T10:34:30.506Z,100966.28
2023-03-15T10:37:15.996Z,100976.72
2023-03-15T10:40:03.017Z,100987.97
2023-03-15T10:42:49.057Z,100987.09
2023-03-15T10:45:34.105Z,100982.72
2023-03-15T10:48:18.911Z,100987.00
2023-03-15T10:51:25.769Z,100994.69
2023-03-15T10:54:24.891Z,100993.72
2023-03-15T10:57:15.583Z,100991.16
2023-03-15T11:00:17.193Z,100986.94
2023-03-15T11:03:18.337Z,100993.09
2023-03-15T11:06:19.895Z,100987.06
2023-03-15T11:09:10.952Z,100992.09
2023-03-15T11:12:01.353Z,100984.28
2023-03-15T11:14:49.027Z,100986.75
2023-03-15T11:17:42.287Z,100987.66
2023-03-15T11:20:31.286Z,100990.19
2023-03-15T11:23:25.970Z,100979.94
2023-03-15T11:26:31.399Z,100988.59
2023-03-15T11:29:37.188Z,100987.88
2023-03-15T11:32:26.384Z,100983.59
2023-03-15T11:35:15.242Z,100987.00
2023-03-15T11:38:15.587Z,100994.81
2023-03-15T11:41:04.982Z,100997.28
2023-03-15T11:44:08.542Z,100995.47
2023-03-15T11:47:16.515Z,100993.75
2023-03-15T11:50:02.460Z,100989.28
2023-03-15T11:52:49.646Z,100984.97
2023-03-15T11:55:34.985Z,100994.69
2023-03-15T11:58:32.889Z,100996.44
2023-03-15T12:01:26.997Z,100998.03
2023-03-15T12:04:33.645Z,100992.56
2023-03-15T12:07:24.690Z,100990.50
2023-03-15T12:10:29.768Z,101000.88
2023-03-15T12:13:20.753Z,100999.31
2023-03-15T12:16:07.447Z,100992.63
2023-03-15T12:18:54.171Z,101005.81
2023-03-15T12:21:41.866Z,100999.19
2023-03-15T12:24:29.812Z,101004.66
2023-03-15T12:27:18.756Z,101002.38
2023-03-15T12:30:19.900Z,101008.53
2023-03-15T12:33:19.370Z,101012.66
2023-03-15T12:36:10.754Z,101005.06
2023-03-15T12:39:14.173Z,101003.22
2023-03-15T12:41:59.417Z,101014.72
2023-03-15T12:44:44.387Z,101020.00
2023-03-15T12:47:47.393Z,101012.50
2023-03-15T12:50:44.663Z,101030.94
2023-03-15T12:53:36.896Z,101033.53
2023-03-15T12:56:32.767Z,101031.84
2023-03-15T12:59:27.446Z,101041.38
2023-03-15T13:02:43.923Z,101055.09
2023-03-15T13:05:36.099Z,101067.94
2023-03-15T13:08:24.514Z,101096.72
2023-03-15T13:11:18.793Z,101067.41
2023-03-15T13:14:22.857Z,101095.00
2023-03-15T13:17:21.531Z,101115.75
2023-03-15T13:20:18.794Z,101133.97
2023-03-15T13:23:18.107Z,101149.53
2023-03-15T13:26:36.465Z,101178.88
2023-03-15T13:29:30.853Z,101155.47
2023-03-15T13:32:19.649Z,101152.03
2023-03-15T13:35:13.308Z,101163.22
2023-03-15T13:38:29.084Z,101170.59
2023-03-15T13:41:27.089Z,101171.97
2023-03-15T13:44:24.973Z,101178.47
2023-03-15T13:47:19.244Z,101170.22
2023-03-15T13:50:06.891Z,101165.22
2023-03-15T13:52:54.298Z,101159.75
2023-03-15T13:55:39.922Z,101149.66
2023-03-15T13:58:26.960Z,101150.22
2023-03-15T14:01:14.074Z,101156.50
2023-03-15T14:04:05.764Z,101141.72
2023-03-15T14:06:52.657Z,101139.50
2023-03-15T14:09:38.739Z,101147.31
2023-03-15T14:12:24.125Z,101147.66
2023-03-15T14:15:24.151Z,101150.03
2023-03-15T14:18:08.969Z,101152.56
2023-03-15T14:21:01.193Z,101148.78
2023-03-15T14:23:48.688Z,101146.63
2023-03-15T14:26:36.370Z,101149.94
2023-03-15T14:29:46.446Z,101147.91
2023-03-15T14:32:36.670Z,101139.66
2023-03-15T14:35:29.314Z,101142.41
2023-03-15T14:38:24.783Z,101136.09
2023-03-15T14:41:18.865Z,101136.69
2023-03-15T14:44:03.681Z,101137.63
2023-03-15T14:46:50.121Z,101128.94
2023-03-15T14:49:35.058Z,101126.41
2023-03-15T14:52:23.436Z,101131.00
2023-03-15T14:55:17.678Z,101129.28
2023-03-15T14:58:05.125Z,101130.41
2023-03-15T15:00:54.113Z,101137.44
2023-03-15T15:03:44.102Z,101130.50
2023-03-15T15:06:31.899Z,101137.41
2023-03-15T15:09:21.563Z,101144.38
2023-03-15T15:12:06.764Z,101149.56
2023-03-15T15:14:52.077Z,101145.22
2023-03-15T15:17:37.310Z,101159.88
2023-03-15T15:20:24.544Z,101158.09
2023-03-15T15:23:16.144Z,101160.63
2023-03-15T15:26:06.624Z,101161.41
2023-03-15T15:28:52.273Z,101161.41
2023-03-15T15:31:37.850Z,101161.41
2023-03-15T15:34:23.037Z,101170.84
2023-03-15T15:37:11.536Z,101174.31
2023-03-15T15:39:56.801Z,101174.22
2023-03-15T15:42:42.005Z,101180.25
2023-03-15T15:45:27.148Z,101175.03
2023-03-15T15:48:12.315Z,101172.44
2023-03-15T15:50:58.875Z,101182.78
2023-03-15T15:53:43.845Z,101188.06
2023-03-15T15:56:36.895Z,101194.97
2023-03-15T15:59:25.866Z,101191.78
2023-03-15T16:02:22.087Z,101187.63
2023-03-15T16:05:09.913Z,101192.81
2023-03-15T16:07:56.851Z,101200.59
2023-03-15T16:10:43.420Z,101204.88
2023-03-15T16:13:28.574Z,101198.84
2023-03-15T16:16:16.459Z,101196.25
2023-03-15T16:19:01.742Z,101204.91
2023-03-15T16:21:52.274Z,101214.41
2023-03-15T16:24:39.029Z,101218.69
2023-03-15T16:27:27.240Z,101227.34
2023-03-15T16:30:20.778Z,101231.69
2023-03-15T16:33:17.196Z,101237.72
2023-03-15T16:36:03.200Z,101242.72
2023-03-15T16:38:49.526Z,101241.69
2023-03-15T16:41:36.282Z,101245.06
2023-03-15T16:44:23.005Z,101251.91
2023-03-15T16:47:09.816Z,101256.19
2023-03-15T16:49:55.024Z,101257.16
2023-03-15T16:52:43.208Z,101261.47
2023-03-15T16:55:32.999Z,101258.03
2023-03-15T16:58:20.449Z,101264.00
2023-03-15T17:01:08.154Z,101266.41
2023-03-15T17:03:53.459Z,101278.34
2023-03-15T17:06:38.963Z,101279.03
2023-03-15T17:09:24.829Z,101277.31
2023-03-15T17:12:30.252Z,101282.31
2023-03-15T17:15:18.159Z,101294.38
2023-03-15T17:18:04.550Z,101284.88
2023-03-15T17:20:50.321Z,101300.31
2023-03-15T17:23:36.238Z,101289.88
2023-03-15T17:26:23.544Z,101298.47
2023-03-15T17:29:13.510Z,101308.78
2023-03-15T17:31:58.721Z,101309.56
2023-03-15T17:34:47.056Z,101318.88
2023-03-15T17:37:36.011Z,101322.47
2023-03-15T17:40:33.183Z,101323.16
2023-03-15T17:43:17.945Z,101331.09
2023-03-15T17:46:03.237Z,101331.78
2023-03-15T17:48:48.868Z,101325.81
2023-03-15T17:51:36.670Z,101335.44
2023-03-15T17:54:21.911Z,101331.91
2023-03-15T17:57:07.132Z,101339.63
2023-03-15T17:59:53.487Z,101338.00
2023-03-15T18:02:43.375Z,101348.84
2023-03-15T18:05:31.572Z,101346.19
2023-03-15T18:08:19.060Z,101349.59
2023-03-15T18:11:12.534Z,101352.31
2023-03-15T18:13:59.018Z,101351.44
2023-03-15T18:16:45.093Z,101348.38
2023-03-15T18:19:29.942Z,101352.66
2023-03-15T18:22:17.000Z,101352.84
2023-03-15T18:25:06.388Z,101358.06
2023-03-15T18:27:51.410Z,101355.22
2023-03-15T18:30:36.959Z,101358.13
2023-03-15T18:33:22.146Z,101368.38
2023-03-15T18:36:08.072Z,101369.44
2023-03-15T18:38:54.579Z,101364.91
2023-03-15T18:41:39.879Z,101367.72
2023-03-15T18:44:24.803Z,101374.63
2023-03-15T18:47:09.787Z,101362.72
2023-03-15T18:50:04.514Z,101364.47
2023-03-15T18:52:55.092Z,101366.88
2023-03-15T18:55:39.831Z,101367.63
2023-03-15T18:58:25.146Z,101380.63
2023-03-15T19:01:13.691Z,101373.69
2023-03-15T19:03:58.506Z,101370.31
2023-03-15T19:06:44.383Z,101377.84
2023-03-15T19:09:30.989Z,101378.25
2023-03-15T19:12:15.986Z,101373.47
2023-03-15T19:15:00.951Z,101383.47
2023-03-15T19:17:49.956Z,101376.78
2023-03-15T19:20:36.797Z,101371.72
2023-03-15T19:23:23.131Z,101383.13
2023-03-15T19:26:10.033Z,101390.09
2023-03-15T19:28:56.775Z,101390.91
2023-03-15T19:31:41.737Z,101399.50
2023-03-15T19:34:28.392Z,101398.41
2023-03-15T19:37:15.408Z,101407.13
2023-03-15T19:40:02.081Z,101400.28
2023-03-15T19:42:48.518Z,101401.88
2023-03-15T19:45:33.838Z,101405.16
2023-03-15T19:48:18.695Z,101411.03
2023-03-15T19:51:05.476Z,101406.88
2023-03-15T19:53:51.337Z,101413.28
2023-03-15T19:56:37.933Z,101426.13
2023-03-15T19:59:23.139Z,101420.75
2023-03-15T20:02:14.323Z,101425.13
2023-03-15T20:05:01.377Z,101431.88
2023-03-15T20:07:54.892Z,101435.44
2023-03-15T20:10:43.239Z,101430.41
2023-03-15T20:13:31.313Z,101432.63
2023-03-15T20:16:18.263Z,101437.91
2023-03-15T20:19:04.684Z,101429.03
2023-03-15T20:21:50.228Z,101435.28
2023-03-15T20:24:37.245Z,101430.22
2023-03-15T20:27:25.750Z,101435.38
2023-03-15T20:30:14.495Z,101437.78
2023-03-15T20:33:03.230Z,101439.09
2023-03-15T20:35:48.618Z,101427.81
2023-03-15T20:38:40.346Z,101432.91
2023-03-15T20:41:28.352Z,101437.53
2023-03-15T20:44:19.808Z,101452.09
2023-03-15T20:47:07.069Z,101454.97
2023-03-15T20:49:54.926Z,101454.81
2023-03-15T20:52:42.386Z,101452.59
2023-03-15T20:55:31.760Z,101455.69
2023-03-15T20:58:17.445Z,101454.66
2023-03-15T21:01:07.845Z,101455.59
2023-03-15T21:03:57.707Z,101463.94
2023-03-15T21:06:42.583Z,101460.56
2023-03-15T21:09:27.405Z,101469.03
2023-03-15T21:12:12.214Z,101458.94
2023-03-15T21:14:57.792Z,101468.44
2023-03-15T21:17:44.411Z,101466.84
2023-03-15T21:20:29.307Z,101469.66
2023-03-15T21:23:14.189Z,101471.78
2023-03-15T21:26:02.358Z,101471.88
2023-03-15T21:28:47.401Z,101474.59
2023-03-15T21:31:32.590Z,101471.13
2023-03-15T21:34:19.233Z,101471.81
2023-03-15T21:37:04.425Z,101470.19
2023-03-15T21:39:51.177Z,101469.28
2023-03-15T21:42:36.201Z,101475.13
2023-03-15T21:45:24.123Z,101469.34
2023-03-15T21:48:09.551Z,101473.47
2023-03-15T21:50:54.860Z,101478.34
2023-03-15T21:53:42.386Z,101473.88
2023-03-15T21:56:28.975Z,101469.38
2023-03-15T21:59:14.568Z,101464.47
2023-03-15T22:02:01.485Z,101474.00
2023-03-15T22:04:46.275Z,101472.50
2023-03-15T22:07:41.194Z,101476.97
2023-03-15T22:10:26.599Z,101474.19
2023-03-15T22:13:11.933Z,101472.09
2023-03-15T22:15:58.603Z,101474.25
2023-03-15T22:18:43.587Z,101475.34
2023-03-15T22:21:29.468Z,101480.53
2023-03-15T22:24:14.183Z,101482.31
2023-03-15T22:27:00.960Z,101483.38
2023-03-15T22:29:45.732Z,101484.66
2023-03-15T22:32:31.249Z,101473.66
2023-03-15T22:35:17.898Z,101480.50
2023-03-15T22:38:09.635Z,101475.66
2023-03-15T22:41:03.752Z,101470.31
2023-03-15T22:43:48.585Z,101474.69
2023-03-15T22:46:35.285Z,101475.84
2023-03-15T22:49:20.478Z,101482.59
2023-03-15T22:52:06.209Z,101470.56
2023-03-15T22:54:52.394Z,101479.09
2023-03-15T22:57:40.302Z,101482.13
2023-03-15T23:00:25.787Z,101476.41
2023-03-15T23:03:11.757Z,101486.03
2023-03-15T23:05:57.687Z,101491.25
2023-03-15T23:08:43.578Z,101489.91
2023-03-15T23:11:29.054Z,101483.69
2023-03-15T23:14:14.315Z,101486.31
2023-03-15T23:16:59.837Z,101493.91
2023-03-15T23:19:45.148Z,101483.69
2023-03-15T23:22:30.111Z,101493.31
2023-03-15T23:25:19.469Z,101490.78
2023-03-15T23:28:05.821Z,101492.25
2023-03-15T23:30:51.400Z,101496.22
2023-03-15T23:33:36.468Z,101488.50
2023-03-15T23:36:21.554Z,101492.28
2023-03-15T23:39:06.603Z,101496.66
2023-03-15T23:41:51.756Z,101504.81
2023-03-15T23:44:36.988Z,101501.63
2023-03-15T23:47:23.360Z,101509.22
2023-03-15T23:50:10.044Z,101512.47
2023-03-15T23:52:56.434Z,101519.31
2023-03-15T23:55:41.587Z,101516.41
2023-03-15T23:58:27.605Z,101516.41
